sensor_id;sensor_type;location;lat;lon;timestamp;pressure;altitude;pressure_sealevel;temperature;humidity
69524;BME280;56723;42.694;23.286;2023-04-10T00:00:31;95173.53;;;6.46;86.27
69524;BME280;56723;42.694;23.286;2023-04-10T00:02:59;95171.78;;;6.47;85.83
69524;BME280;56723;42.694;23.286;2023-04-10T00:05:29;95165.94;;;6.45;86.12
69524;BME280;56723;42.694;23.286;2023-04-10T00:07:56;95173.53;;;6.46;85.43
69524;BME280;56723;42.694;23.286;2023-04-10T00:10:23;95163.50;;;6.43;85.65
69524;BME280;56723;42.694;23.286;2023-04-10T00:12:52;95154.56;;;6.38;84.80
69524;BME280;56723;42.694;23.286;2023-04-10T00:15:19;95166.75;;;6.45;84.61
69524;BME280;56723;42.694;23.286;2023-04-10T00:17:46;95152.53;;;6.41;84.21
69524;BME280;56723;42.694;23.286;2023-04-10T00:20:16;95161.06;;;6.42;83.47
69524;BME280;56723;42.694;23.286;2023-04-10T00:22:43;95157.00;;;6.39;83.28
69524;BME280;56723;42.694;23.286;2023-04-10T00:25:10;95153.75;;;6.37;82.47
69524;BME280;56723;42.694;23.286;2023-04-10T00:27:43;95158.91;;;6.37;81.43
69524;BME280;56723;42.694;23.286;2023-04-10T00:30:17;95143.84;;;6.33;79.83
69524;BME280;56723;42.694;23.286;2023-04-10T00:32:44;95139.16;;;6.28;79.08
69524;BME280;56723;42.694;23.286;2023-04-10T00:35:11;95144.81;;;6.32;78.41
69524;BME280;56723;42.694;23.286;2023-04-10T00:37:38;95152.38;;;6.33;77.94
69524;BME280;56723;42.694;23.286;2023-04-10T00:40:06;95125.72;;;6.15;74.79
69524;BME280;56723;42.694;23.286;2023-04-10T00:42:33;95149.00;;;6.33;74.43
69524;BME280;56723;42.694;23.286;2023-04-10T00:45:00;95145.91;;;6.29;72.29
69524;BME280;56723;42.694;23.286;2023-04-10T00:47:27;95128.84;;;6.28;69.77
69524;BME280;56723;42.694;23.286;2023-04-10T00:49:55;95138.72;;;6.33;68.51
69524;BME280;56723;42.694;23.286;2023-04-10T00:52:25;95157.81;;;6.40;69.51
69524;BME280;56723;42.694;23.286;2023-04-10T00:54:52;95148.59;;;6.37;70.05
69524;BME280;56723;42.694;23.286;2023-04-10T00:57:19;95155.38;;;6.38;69.46
69524;BME280;56723;42.694;23.286;2023-04-10T00:59:46;95150.50;;;6.35;70.47
69524;BME280;56723;42.694;23.286;2023-04-10T01:02:14;95146.97;;;6.36;72.46
69524;BME280;56723;42.694;23.286;2023-04-10T01:04:42;95144.53;;;6.35;76.17
69524;BME280;56723;42.694;23.286;2023-04-10T01:10:18;95141.28;;;6.33;80.73
69524;BME280;56723;42.694;23.286;2023-04-10T01:12:54;95134.69;;;6.30;82.54
69524;BME280;56723;42.694;23.286;2023-04-10T01:15:26;95128.44;;;6.23;85.96
69524;BME280;56723;42.694;23.286;2023-04-10T01:18:00;95136.97;;;6.23;89.27
69524;BME280;56723;42.694;23.286;2023-04-10T01:20:31;95137.50;;;6.17;91.13
69524;BME280;56723;42.694;23.286;2023-04-10T02:29:07;95096.69;;;5.55;95.68
69524;BME280;56723;42.694;23.286;2023-04-10T02:31:34;95109.81;;;5.62;95.33
69524;BME280;56723;42.694;23.286;2023-04-10T02:34:01;95103.59;;;5.64;95.33
69524;BME280;56723;42.694;23.286;2023-04-10T02:36:28;95100.88;;;5.66;96.45
69524;BME280;56723;42.694;23.286;2023-04-10T02:38:55;95101.44;;;5.69;97.07
69524;BME280;56723;42.694;23.286;2023-04-10T02:41:23;95096.03;;;5.72;96.48
69524;BME280;56723;42.694;23.286;2023-04-10T02:43:51;95091.59;;;5.74;96.54
69524;BME280;56723;42.694;23.286;2023-04-10T02:46:24;95088.72;;;5.77;96.10
69524;BME280;56723;42.694;23.286;2023-04-10T04:44:17;95125.78;;;4.85;100.00
69524;BME280;56723;42.694;23.286;2023-04-10T04:47:02;95130.66;;;4.88;100.00
69524;BME280;56723;42.694;23.286;2023-04-10T04:49:40;95130.03;;;4.96;100.00
69524;BME280;56723;42.694;23.286;2023-04-10T04:52:27;95134.25;;;5.06;100.00
69524;BME280;56723;42.694;23.286;2023-04-10T04:55:20;95138.88;;;5.12;100.00
69524;BME280;56723;42.694;23.286;2023-04-10T04:58:06;95119.53;;;5.08;100.00
69524;BME280;56723;42.694;23.286;2023-04-10T05:00:59;95135.94;;;5.27;100.00
69524;BME280;56723;42.694;23.286;2023-04-10T05:03:49;95142.34;;;5.42;100.00
69524;BME280;56723;42.694;23.286;2023-04-10T05:06:52;95138.47;;;5.47;100.00
69524;BME280;56723;42.694;23.286;2023-04-10T05:09:38;95143.59;;;5.57;100.00
69524;BME280;56723;42.694;23.286;2023-04-10T05:12:25;95147.28;;;5.64;100.00
69524;BME280;56723;42.694;23.286;2023-04-10T05:35:05;95144.03;;;6.12;100.00
69524;BME280;56723;42.694;23.286;2023-04-10T05:37:39;95144.66;;;6.14;100.00
69524;BME280;56723;42.694;23.286;2023-04-10T05:40:27;95146.19;;;6.26;100.00
69524;BME280;56723;42.694;23.286;2023-04-10T05:43:09;95142.09;;;6.33;100.00
69524;BME280;56723;42.694;23.286;2023-04-10T05:46:11;95142.50;;;6.38;100.00
69524;BME280;56723;42.694;23.286;2023-04-10T05:48:58;95153.22;;;6.43;100.00
69524;BME280;56723;42.694;23.286;2023-04-10T05:51:52;95145.59;;;6.51;100.00
69524;BME280;56723;42.694;23.286;2023-04-10T05:54:31;95149.41;;;6.57;100.00
69524;BME280;56723;42.694;23.286;2023-04-10T05:57:18;95152.78;;;6.67;99.78
69524;BME280;56723;42.694;23.286;2023-04-10T06:00:04;95154.13;;;6.71;99.39
69524;BME280;56723;42.694;23.286;2023-04-10T06:02:39;95161.44;;;6.76;98.49
69524;BME280;56723;42.694;23.286;2023-04-10T06:05:15;95159.13;;;6.82;98.15
69524;BME280;56723;42.694;23.286;2023-04-10T06:07:43;95155.72;;;6.91;96.39
69524;BME280;56723;42.694;23.286;2023-04-10T06:10:10;95151.22;;;6.93;95.24
69524;BME280;56723;42.694;23.286;2023-04-10T06:12:37;95154.06;;;7.00;93.41
69524;BME280;56723;42.694;23.286;2023-04-10T06:15:08;95159.59;;;7.05;92.99
69524;BME280;56723;42.694;23.286;2023-04-10T06:17:42;95149.59;;;7.02;93.13
69524;BME280;56723;42.694;23.286;2023-04-10T06:20:10;95156.88;;;7.07;93.66
69524;BME280;56723;42.694;23.286;2023-04-10T06:22:37;95145.47;;;7.09;92.80
69524;BME280;56723;42.694;23.286;2023-04-10T06:25:04;95140.47;;;7.08;91.19
69524;BME280;56723;42.694;23.286;2023-04-10T06:27:33;95144.94;;;7.15;90.54
69524;BME280;56723;42.694;23.286;2023-04-10T06:30:20;95142.50;;;7.14;90.11
69524;BME280;56723;42.694;23.286;2023-04-10T06:32:47;95140.06;;;7.12;88.92
69524;BME280;56723;42.694;23.286;2023-04-10T06:35:14;95137.34;;;7.14;88.76
69524;BME280;56723;42.694;23.286;2023-04-10T06:37:41;95146.97;;;7.21;87.67
69524;BME280;56723;42.694;23.286;2023-04-10T06:40:12;95143.78;;;7.27;87.21
69524;BME280;56723;42.694;23.286;2023-04-10T06:42:39;95137.53;;;7.30;87.34
69524;BME280;56723;42.694;23.286;2023-04-10T06:45:21;95143.03;;;7.45;85.43
69524;BME280;56723;42.694;23.286;2023-04-10T06:47:48;95148.03;;;7.56;84.47
69524;BME280;56723;42.694;23.286;2023-04-10T06:50:15;95147.28;;;7.63;82.64
69524;BME280;56723;42.694;23.286;2023-04-10T06:52:46;95155.28;;;7.70;82.41
69524;BME280;56723;42.694;23.286;2023-04-10T06:55:13;95153.66;;;7.69;80.48
69524;BME280;56723;42.694;23.286;2023-04-10T06:57:40;95152.84;;;7.69;81.30
69524;BME280;56723;42.694;23.286;2023-04-10T07:00:08;95155.94;;;7.72;81.28
69524;BME280;56723;42.694;23.286;2023-04-10T07:02:35;95155.50;;;7.77;81.42
69524;BME280;56723;42.694;23.286;2023-04-10T07:05:02;95160.53;;;7.78;80.15
69524;BME280;56723;42.694;23.286;2023-04-10T07:07:29;95162.50;;;7.84;78.98
69524;BME280;56723;42.694;23.286;2023-04-10T07:09:57;95153.81;;;7.85;79.42
69524;BME280;56723;42.694;23.286;2023-04-10T07:12:24;95147.41;;;7.89;78.75
69524;BME280;56723;42.694;23.286;2023-04-10T07:14:51;95151.88;;;7.97;78.41
69524;BME280;56723;42.694;23.286;2023-04-10T07:17:18;95153.16;;;8.01;77.41
69524;BME280;56723;42.694;23.286;2023-04-10T07:19:45;95146.63;;;8.07;77.88
69524;BME280;56723;42.694;23.286;2023-04-10T07:22:13;95153.13;;;8.11;77.46
69524;BME280;56723;42.694;23.286;2023-04-10T07:24:41;95155.41;;;8.14;77.24
69524;BME280;56723;42.694;23.286;2023-04-10T07:27:09;95152.84;;;8.14;76.26
69524;BME280;56723;42.694;23.286;2023-04-10T07:29:35;95154.47;;;8.15;76.06
69524;BME280;56723;42.694;23.286;2023-04-10T07:32:03;95148.63;;;8.13;75.51
69524;BME280;56723;42.694;23.286;2023-04-10T07:34:30;95155.28;;;8.15;75.60
69524;BME280;56723;42.694;23.286;2023-04-10T07:36:57;95148.47;;;8.14;74.90
69524;BME280;56723;42.694;23.286;2023-04-10T07:39:24;95152.22;;;8.20;74.89
69524;BME280;56723;42.694;23.286;2023-04-10T07:41:52;95157.53;;;8.18;75.25
69524;BME280;56723;42.694;23.286;2023-04-10T07:44:20;95154.50;;;8.23;74.94
69524;BME280;56723;42.694;23.286;2023-04-10T07:46:48;95151.34;;;8.29;74.67
69524;BME280;56723;42.694;23.286;2023-04-10T07:49:15;95157.28;;;8.39;74.14
69524;BME280;56723;42.694;23.286;2023-04-10T07:51:42;95161.84;;;8.45;73.53
69524;BME280;56723;42.694;23.286;2023-04-10T07:54:09;95147.69;;;8.49;73.11
69524;BME280;56723;42.694;23.286;2023-04-10T07:56:36;95153.88;;;8.56;72.16
69524;BME280;56723;42.694;23.286;2023-04-10T07:59:05;95141.31;;;8.61;72.19
69524;BME280;56723;42.694;23.286;2023-04-10T08:01:32;95146.31;;;8.81;72.37
69524;BME280;56723;42.694;23.286;2023-04-10T08:04:00;95150.59;;;8.90;71.31
69524;BME280;56723;42.694;23.286;2023-04-10T08:06:31;95153.06;;;8.99;70.60
69524;BME280;56723;42.694;23.286;2023-04-10T08:08:58;95157.09;;;9.02;70.50
69524;BME280;56723;42.694;23.286;2023-04-10T08:11:30;95147.22;;;8.97;70.86
69524;BME280;56723;42.694;23.286;2023-04-10T08:13:59;95151.78;;;9.03;70.52
69524;BME280;56723;42.694;23.286;2023-04-10T08:16:33;95159.41;;;9.05;70.91
69524;BME280;56723;42.694;23.286;2023-04-10T08:19:01;95143.88;;;9.05;70.83
69524;BME280;56723;42.694;23.286;2023-04-10T08:21:29;95157.00;;;9.12;70.96
69524;BME280;56723;42.694;23.286;2023-04-10T08:23:59;95152.34;;;9.15;70.41
69524;BME280;56723;42.694;23.286;2023-04-10T08:26:27;95151.66;;;9.13;69.15
69524;BME280;56723;42.694;23.286;2023-04-10T08:28:57;95141.63;;;9.10;67.48
69524;BME280;56723;42.694;23.286;2023-04-10T08:31:26;95142.97;;;9.14;68.69
69524;BME280;56723;42.694;23.286;2023-04-10T08:33:54;95146.59;;;9.29;68.21
69524;BME280;56723;42.694;23.286;2023-04-10T08:36:22;95147.56;;;9.28;66.57
69524;BME280;56723;42.694;23.286;2023-04-10T08:38:49;95146.28;;;9.32;66.98
69524;BME280;56723;42.694;23.286;2023-04-10T08:41:17;95141.78;;;9.34;67.38
69524;BME280;56723;42.694;23.286;2023-04-10T08:43:45;95146.63;;;9.37;67.63
69524;BME280;56723;42.694;23.286;2023-04-10T08:46:12;95146.78;;;9.36;66.74
69524;BME280;56723;42.694;23.286;2023-04-10T08:49:00;95139.56;;;9.48;67.16
69524;BME280;56723;42.694;23.286;2023-04-10T08:51:35;95133.94;;;9.52;66.26
69524;BME280;56723;42.694;23.286;2023-04-10T08:54:09;95133.81;;;9.62;65.24
69524;BME280;56723;42.694;23.286;2023-04-10T08:56:39;95130.41;;;9.61;65.19
69524;BME280;56723;42.694;23.286;2023-04-10T08:59:08;95138.84;;;9.71;65.38
69524;BME280;56723;42.694;23.286;2023-04-10T09:01:35;95129.66;;;9.77;64.04
69524;BME280;56723;42.694;23.286;2023-04-10T09:04:03;95126.75;;;9.88;64.65
69524;BME280;56723;42.694;23.286;2023-04-10T09:06:32;95130.03;;;9.98;63.31
69524;BME280;56723;42.694;23.286;2023-04-10T09:08:59;95122.00;;;10.18;62.31
69524;BME280;56723;42.694;23.286;2023-04-10T09:14:28;95116.53;;;10.37;60.62
69524;BME280;56723;42.694;23.286;2023-04-10T09:17:28;95105.38;;;10.36;57.29
69524;BME280;56723;42.694;23.286;2023-04-10T09:19:55;95102.13;;;10.34;57.93
69524;BME280;56723;42.694;23.286;2023-04-10T09:22:30;95094.97;;;10.28;58.50
69524;BME280;56723;42.694;23.286;2023-04-10T09:24:58;95119.59;;;10.40;57.55
69524;BME280;56723;42.694;23.286;2023-04-10T09:29:55;95107.47;;;10.33;59.59
69524;BME280;56723;42.694;23.286;2023-04-10T09:32:40;95107.13;;;10.28;56.79
69524;BME280;56723;42.694;23.286;2023-04-10T09:35:12;95107.56;;;10.15;57.13
69524;BME280;56723;42.694;23.286;2023-04-10T09:37:40;95103.50;;;9.96;57.68
69524;BME280;56723;42.694;23.286;2023-04-10T09:40:22;95101.19;;;9.85;58.35
69524;BME280;56723;42.694;23.286;2023-04-10T09:42:51;95107.03;;;9.87;58.80
69524;BME280;56723;42.694;23.286;2023-04-10T09:45:19;95095.72;;;9.80;59.13
69524;BME280;56723;42.694;23.286;2023-04-10T09:48:04;95096.69;;;9.87;59.39
69524;BME280;56723;42.694;23.286;2023-04-10T09:50:37;95100.41;;;9.93;58.94
69524;BME280;56723;42.694;23.286;2023-04-10T09:53:09;95097.66;;;10.02;58.59
69524;BME280;56723;42.694;23.286;2023-04-10T09:55:36;95102.56;;;10.14;57.76
69524;BME280;56723;42.694;23.286;2023-04-10T09:58:04;95104.84;;;10.25;55.28
69524;BME280;56723;42.694;23.286;2023-04-10T10:00:38;95097.41;;;10.22;54.72
69524;BME280;56723;42.694;23.286;2023-04-10T10:03:08;95089.97;;;10.19;54.49
69524;BME280;56723;42.694;23.286;2023-04-10T10:05:41;95101.94;;;10.28;53.90
69524;BME280;56723;42.694;23.286;2023-04-10T10:08:10;95083.50;;;10.31;53.18
69524;BME280;56723;42.694;23.286;2023-04-10T10:10:45;95095.94;;;10.60;52.29
69524;BME280;56723;42.694;23.286;2023-04-10T10:13:23;95090.75;;;10.92;51.46
69524;BME280;56723;42.694;23.286;2023-04-10T10:18:54;95089.84;;;11.24;49.67
69524;BME280;56723;42.694;23.286;2023-04-10T10:21:25;95073.78;;;11.29;49.47
69524;BME280;56723;42.694;23.286;2023-04-10T10:23:55;95079.72;;;11.37;48.92
69524;BME280;56723;42.694;23.286;2023-04-10T10:26:24;95066.22;;;11.11;50.11
69524;BME280;56723;42.694;23.286;2023-04-10T10:28:52;95073.31;;;11.17;50.55
69524;BME280;56723;42.694;23.286;2023-04-10T10:31:20;95074.94;;;11.18;49.95
69524;BME280;56723;42.694;23.286;2023-04-10T10:33:50;95070.72;;;11.17;50.43
69524;BME280;56723;42.694;23.286;2023-04-10T10:36:19;95068.81;;;11.11;50.74
69524;BME280;56723;42.694;23.286;2023-04-10T10:42:25;95070.44;;;10.96;55.98
69524;BME280;56723;42.694;23.286;2023-04-10T10:47:17;95058.50;;;10.87;55.76
69524;BME280;56723;42.694;23.286;2023-04-10T10:49:59;95058.66;;;10.85;55.70
69524;BME280;56723;42.694;23.286;2023-04-10T10:52:46;95048.16;;;10.62;56.01
69524;BME280;56723;42.694;23.286;2023-04-10T10:57:52;95054.84;;;10.57;54.36
69524;BME280;56723;42.694;23.286;2023-04-10T11:00:21;95053.34;;;10.62;53.18
69524;BME280;56723;42.694;23.286;2023-04-10T11:05:53;95034.56;;;10.60;50.43
69524;BME280;56723;42.694;23.286;2023-04-10T11:08:45;95031.50;;;10.73;49.82
69524;BME280;56723;42.694;23.286;2023-04-10T11:11:19;95036.63;;;10.89;50.16
69524;BME280;56723;42.694;23.286;2023-04-10T11:16:41;95024.25;;;11.77;47.56
69524;BME280;56723;42.694;23.286;2023-04-10T11:19:10;95015.91;;;12.28;45.63
69524;BME280;56723;42.694;23.286;2023-04-10T11:22:06;95011.66;;;12.64;43.99
69524;BME280;56723;42.694;23.286;2023-04-10T11:25:09;95013.94;;;12.82;46.21
69524;BME280;56723;42.694;23.286;2023-04-10T11:27:38;95017.16;;;12.69;47.22
69524;BME280;56723;42.694;23.286;2023-04-10T11:30:28;95011.28;;;12.38;48.29
69524;BME280;56723;42.694;23.286;2023-04-10T11:32:57;95021.03;;;11.98;47.44
69524;BME280;56723;42.694;23.286;2023-04-10T11:35:26;95018.56;;;11.74;47.20
69524;BME280;56723;42.694;23.286;2023-04-10T11:38:08;95019.00;;;11.55;47.38
69524;BME280;56723;42.694;23.286;2023-04-10T11:40:35;95005.94;;;11.40;47.53
69524;BME280;56723;42.694;23.286;2023-04-10T11:43:14;95018.50;;;11.28;48.33
69524;BME280;56723;42.694;23.286;2023-04-10T11:45:41;95027.31;;;11.11;48.93
69524;BME280;56723;42.694;23.286;2023-04-10T11:48:09;95002.66;;;11.15;49.32
69524;BME280;56723;42.694;23.286;2023-04-10T11:50:36;95006.53;;;11.19;49.86
69524;BME280;56723;42.694;23.286;2023-04-10T11:53:17;95012.28;;;11.37;50.31
69524;BME280;56723;42.694;23.286;2023-04-10T11:55:45;95013.22;;;11.44;49.99
69524;BME280;56723;42.694;23.286;2023-04-10T11:58:27;95001.44;;;11.65;50.08
69524;BME280;56723;42.694;23.286;2023-04-10T12:03:37;94998.63;;;11.43;50.79
69524;BME280;56723;42.694;23.286;2023-04-10T12:06:08;94995.78;;;11.30;52.16
69524;BME280;56723;42.694;23.286;2023-04-10T12:08:40;94998.06;;;11.25;53.81
69524;BME280;56723;42.694;23.286;2023-04-10T12:11:09;94997.25;;;10.94;55.48
69524;BME280;56723;42.694;23.286;2023-04-10T12:13:37;94993.06;;;10.76;57.22
69524;BME280;56723;42.694;23.286;2023-04-10T12:16:09;94998.63;;;10.65;58.57
69524;BME280;56723;42.694;23.286;2023-04-10T12:18:37;95004.97;;;10.55;60.08
69524;BME280;56723;42.694;23.286;2023-04-10T12:21:05;95013.88;;;10.44;60.36
69524;BME280;56723;42.694;23.286;2023-04-10T12:23:36;95023.09;;;10.14;64.77
69524;BME280;56723;42.694;23.286;2023-04-10T12:26:15;95028.88;;;9.84;71.54
69524;BME280;56723;42.694;23.286;2023-04-10T12:28:55;95032.72;;;9.47;76.06
69524;BME280;56723;42.694;23.286;2023-04-10T12:31:31;95035.94;;;8.99;75.96
69524;BME280;56723;42.694;23.286;2023-04-10T12:34:02;95032.81;;;8.53;77.33
69524;BME280;56723;42.694;23.286;2023-04-10T12:36:33;95040.09;;;8.32;82.28
69524;BME280;56723;42.694;23.286;2023-04-10T12:39:02;95043.97;;;8.18;87.50
69524;BME280;56723;42.694;23.286;2023-04-10T12:41:33;95041.94;;;7.86;88.38
69524;BME280;56723;42.694;23.286;2023-04-10T12:44:12;95059.69;;;7.72;91.07
69524;BME280;56723;42.694;23.286;2023-04-10T12:46:41;95066.97;;;7.41;90.47
69524;BME280;56723;42.694;23.286;2023-04-10T12:49:15;95073.44;;;7.17;90.32
69524;BME280;56723;42.694;23.286;2023-04-10T12:51:48;95063.84;;;7.10;89.11
69524;BME280;56723;42.694;23.286;2023-04-10T12:54:35;95039.50;;;7.04;87.99
69524;BME280;56723;42.694;23.286;2023-04-10T12:57:03;95023.84;;;7.06;87.11
69524;BME280;56723;42.694;23.286;2023-04-10T12:59:30;95016.66;;;7.09;88.95
69524;BME280;56723;42.694;23.286;2023-04-10T13:01:57;95016.63;;;7.19;88.28
69524;BME280;56723;42.694;23.286;2023-04-10T13:04:24;95009.88;;;7.36;92.32
69524;BME280;56723;42.694;23.286;2023-04-10T13:06:52;95008.50;;;7.59;95.47
69524;BME280;56723;42.694;23.286;2023-04-10T13:09:19;95010.69;;;7.89;97.16
69524;BME280;56723;42.694;23.286;2023-04-10T13:11:46;95008.19;;;8.23;92.95
69524;BME280;56723;42.694;23.286;2023-04-10T13:14:17;94996.81;;;8.52;89.56
69524;BME280;56723;42.694;23.286;2023-04-10T13:16:43;95001.63;;;8.81;85.12
69524;BME280;56723;42.694;23.286;2023-04-10T13:19:14;94989.38;;;8.91;83.79
69524;BME280;56723;42.694;23.286;2023-04-10T13:21:41;94992.41;;;9.20;82.85
69524;BME280;56723;42.694;23.286;2023-04-10T13:24:08;94987.78;;;9.40;80.72
69524;BME280;56723;42.694;23.286;2023-04-10T13:26:40;94979.72;;;9.67;80.39
69524;BME280;56723;42.694;23.286;2023-04-10T13:29:07;94973.91;;;9.90;77.31
69524;BME280;56723;42.694;23.286;2023-04-10T13:31:34;94968.56;;;10.16;74.01
69524;BME280;56723;42.694;23.286;2023-04-10T13:34:01;94975.81;;;10.45;74.49
69524;BME280;56723;42.694;23.286;2023-04-10T13:36:28;94962.00;;;10.68;72.36
69524;BME280;56723;42.694;23.286;2023-04-10T13:38:57;94966.00;;;10.87;69.27
69524;BME280;56723;42.694;23.286;2023-04-10T13:41:24;94965.25;;;11.09;67.74
69524;BME280;56723;42.694;23.286;2023-04-10T13:43:51;94960.63;;;11.28;65.02
69524;BME280;56723;42.694;23.286;2023-04-10T13:46:18;94956.88;;;11.30;63.98
69524;BME280;56723;42.694;23.286;2023-04-10T13:48:45;94957.41;;;11.49;62.38
69524;BME280;56723;42.694;23.286;2023-04-10T13:51:12;94945.34;;;11.56;61.00
69524;BME280;56723;42.694;23.286;2023-04-10T13:53:39;94949.09;;;11.53;60.69
69524;BME280;56723;42.694;23.286;2023-04-10T13:56:07;94956.97;;;11.68;58.64
69524;BME280;56723;42.694;23.286;2023-04-10T13:58:34;94954.97;;;11.70;59.99
69524;BME280;56723;42.694;23.286;2023-04-10T14:01:01;94944.34;;;11.65;58.48
69524;BME280;56723;42.694;23.286;2023-04-10T14:03:28;94948.66;;;11.50;55.69
69524;BME280;56723;42.694;23.286;2023-04-10T14:05:55;94945.44;;;11.48;56.28
69524;BME280;56723;42.694;23.286;2023-04-10T14:08:22;94947.19;;;11.24;57.56
69524;BME280;56723;42.694;23.286;2023-04-10T14:10:49;94942.16;;;11.23;59.68
69524;BME280;56723;42.694;23.286;2023-04-10T14:13:17;94927.53;;;10.99;59.29
69524;BME280;56723;42.694;23.286;2023-04-10T14:15:44;94934.16;;;11.01;60.87
69524;BME280;56723;42.694;23.286;2023-04-10T14:18:12;94936.44;;;11.04;60.89
69524;BME280;56723;42.694;23.286;2023-04-10T14:20:40;94937.06;;;11.06;59.07
69524;BME280;56723;42.694;23.286;2023-04-10T14:23:08;94942.25;;;11.06;59.93
69524;BME280;56723;42.694;23.286;2023-04-10T14:25:35;94950.19;;;11.05;60.14
69524;BME280;56723;42.694;23.286;2023-04-10T14:28:03;94942.00;;;10.93;60.70
69524;BME280;56723;42.694;23.286;2023-04-10T14:30:29;94953.38;;;10.84;61.17
69524;BME280;56723;42.694;23.286;2023-04-10T14:32:58;94935.28;;;10.68;63.12
69524;BME280;56723;42.694;23.286;2023-04-10T14:35:25;94948.72;;;10.63;63.83
69524;BME280;56723;42.694;23.286;2023-04-10T14:37:52;94944.91;;;10.43;62.67
69524;BME280;56723;42.694;23.286;2023-04-10T14:40:19;94939.75;;;10.27;63.06
69524;BME280;56723;42.694;23.286;2023-04-10T14:42:46;94946.41;;;10.21;63.61
69524;BME280;56723;42.694;23.286;2023-04-10T14:45:13;94951.41;;;10.15;63.64
69524;BME280;56723;42.694;23.286;2023-04-10T14:47:40;94951.09;;;10.10;65.54
69524;BME280;56723;42.694;23.286;2023-04-10T14:50:07;94947.53;;;10.02;66.12
69524;BME280;56723;42.694;23.286;2023-04-10T14:52:34;94960.31;;;10.04;65.85
69524;BME280;56723;42.694;23.286;2023-04-10T14:55:01;94950.78;;;9.88;66.82
69524;BME280;56723;42.694;23.286;2023-04-10T14:57:28;94952.56;;;9.63;68.30
69524;BME280;56723;42.694;23.286;2023-04-10T14:59:57;94946.53;;;9.47;70.04
69524;BME280;56723;42.694;23.286;2023-04-10T15:02:26;94955.63;;;9.43;70.48
69524;BME280;56723;42.694;23.286;2023-04-10T15:04:55;94951.56;;;9.40;71.88
69524;BME280;56723;42.694;23.286;2023-04-10T15:07:23;94953.34;;;9.40;71.32
69524;BME280;56723;42.694;23.286;2023-04-10T15:09:55;94945.56;;;9.31;71.03
69524;BME280;56723;42.694;23.286;2023-04-10T15:12:22;94952.69;;;9.37;68.35
69524;BME280;56723;42.694;23.286;2023-04-10T15:14:50;94941.53;;;9.37;69.35
69524;BME280;56723;42.694;23.286;2023-04-10T15:17:21;94942.97;;;9.31;69.02
69524;BME280;56723;42.694;23.286;2023-04-10T15:19:48;94946.38;;;9.24;65.45
69524;BME280;56723;42.694;23.286;2023-04-10T15:22:15;94937.00;;;9.23;65.61
69524;BME280;56723;42.694;23.286;2023-04-10T15:24:42;94931.81;;;9.23;64.99
69524;BME280;56723;42.694;23.286;2023-04-10T15:27:18;94932.00;;;9.37;64.64
69524;BME280;56723;42.694;23.286;2023-04-10T15:29:47;94941.25;;;9.56;63.76
69524;BME280;56723;42.694;23.286;2023-04-10T15:32:14;94936.72;;;9.58;61.35
69524;BME280;56723;42.694;23.286;2023-04-10T15:34:42;94931.22;;;9.53;60.94
69524;BME280;56723;42.694;23.286;2023-04-10T15:37:09;94942.38;;;9.62;59.84
69524;BME280;56723;42.694;23.286;2023-04-10T15:39:37;94927.19;;;9.59;61.72
69524;BME280;56723;42.694;23.286;2023-04-10T15:42:04;94931.53;;;9.66;62.30
69524;BME280;56723;42.694;23.286;2023-04-10T15:44:33;94925.22;;;9.69;60.60
69524;BME280;56723;42.694;23.286;2023-04-10T15:47:00;94919.25;;;9.77;60.31
69524;BME280;56723;42.694;23.286;2023-04-10T15:49:29;94918.91;;;9.88;60.68
69524;BME280;56723;42.694;23.286;2023-04-10T15:52:06;94913.88;;;10.11;59.27
69524;BME280;56723;42.694;23.286;2023-04-10T15:54:33;94924.72;;;10.30;57.97
69524;BME280;56723;42.694;23.286;2023-04-10T15:57:00;94928.25;;;10.37;58.47
69524;BME280;56723;42.694;23.286;2023-04-10T15:59:28;94931.56;;;10.62;57.61
69524;BME280;56723;42.694;23.286;2023-04-10T16:01:55;94916.25;;;10.84;57.17
69524;BME280;56723;42.694;23.286;2023-04-10T16:04:22;94921.38;;;11.00;56.02
69524;BME280;56723;42.694;23.286;2023-04-10T16:06:49;94923.59;;;11.11;55.49
69524;BME280;56723;42.694;23.286;2023-04-10T16:09:17;94923.59;;;11.11;54.92
69524;BME280;56723;42.694;23.286;2023-04-10T16:11:48;94910.69;;;10.95;56.59
69524;BME280;56723;42.694;23.286;2023-04-10T16:14:15;94917.88;;;10.85;56.20
69524;BME280;56723;42.694;23.286;2023-04-10T16:16:44;94915.69;;;10.73;56.99
69524;BME280;56723;42.694;23.286;2023-04-10T16:19:11;94922.16;;;10.69;59.20
69524;BME280;56723;42.694;23.286;2023-04-10T16:21:39;94915.75;;;10.49;58.69
69524;BME280;56723;42.694;23.286;2023-04-10T16:24:06;94916.25;;;10.45;61.04
69524;BME280;56723;42.694;23.286;2023-04-10T16:26:33;94922.59;;;10.34;64.25
69524;BME280;56723;42.694;23.286;2023-04-10T16:29:00;94924.53;;;10.32;63.24
69524;BME280;56723;42.694;23.286;2023-04-10T16:31:27;94920.34;;;10.31;62.82
69524;BME280;56723;42.694;23.286;2023-04-10T16:33:54;94927.13;;;10.32;61.34
69524;BME280;56723;42.694;23.286;2023-04-10T16:36:22;94925.88;;;10.20;62.28
69524;BME280;56723;42.694;23.286;2023-04-10T16:38:49;94928.75;;;10.08;63.34
69524;BME280;56723;42.694;23.286;2023-04-10T16:41:16;94942.03;;;10.05;62.34
69524;BME280;56723;42.694;23.286;2023-04-10T16:43:44;94945.28;;;9.99;62.38
69524;BME280;56723;42.694;23.286;2023-04-10T16:46:11;94952.25;;;9.83;64.71
69524;BME280;56723;42.694;23.286;2023-04-10T16:48:40;94958.84;;;9.45;69.74
69524;BME280;56723;42.694;23.286;2023-04-10T16:51:14;94943.34;;;8.86;74.33
69524;BME280;56723;42.694;23.286;2023-04-10T16:53:42;94958.16;;;8.42;78.11
69524;BME280;56723;42.694;23.286;2023-04-10T16:56:09;94963.16;;;8.18;81.20
69524;BME280;56723;42.694;23.286;2023-04-10T16:58:36;94959.34;;;8.04;82.93
69524;BME280;56723;42.694;23.286;2023-04-10T17:01:20;94974.38;;;7.65;86.57
69524;BME280;56723;42.694;23.286;2023-04-10T17:03:51;94960.13;;;7.25;89.28